Wednesday, October 18, 2017, 6:09 PM EDT
Back to Local

KCKB, Harrison/marion Regional

Location: Bridgeport, WV, United States Lat: 39.3
Local Time: 6:09 PM EDT (22:09 GMT) Lon: -80.217
Time Zone: US/Eastern Elev: 1204 ft

Show me the last for .
Show Coded

Time T Td Feel RH Dir Speed Gust Alt SLP Vis Weather Sky Remarks
2017-10-18 17:53 68 32 - 26 210° 5 - 30.24 30.22 10 CLR None
2017-10-18 16:53 71 30 - 21 200° 7 - 30.24 30.23 10 CLR None
2017-10-18 15:53 70 30 - 22 220° 5 - 30.26 30.24 10 CLR None
2017-10-18 14:53 71 35 - 26 230° 9 - 30.28 30.26 10 CLR None
2017-10-18 13:53 68 36 - 30 - Calm - 30.30 30.28 10 CLR 6-hr Min Temp (2pm): 36.0°F
6-hr Max Temp (2pm): 69.1°F
2017-10-18 12:53 66 40 - 38 - - - 30.33 30.31 10 CLR None
2017-10-18 11:53 62 42 - 47 70° 6 - 30.35 30.34 10 CLR None
2017-10-18 10:53 56 44 - 64 - Calm - 30.36 30.36 10 CLR None
2017-10-18 09:53 50 42 - 74 - Calm - 30.37 30.36 10 CLR None
2017-10-18 08:53 43 38 - 82 - Calm - 30.37 30.37 10 CLR None
2017-10-18 07:53 36 34 - 92 - Calm - 30.35 30.35 8 CLR 6-hr Min Temp (8am): 35.1°F
6-hr Max Temp (8am): 39.9°F
2017-10-18 06:53 36 34 - 92 - Calm - 30.35 30.34 10 CLR None
2017-10-18 05:53 36 34 - 92 - Calm - 30.33 30.33 10 CLR None
2017-10-18 04:53 37 34 - 88 - Calm - 30.33 30.32 9 CLR None
2017-10-18 03:53 39 36 - 88 - Calm - 30.33 30.32 10 CLR None
2017-10-18 02:53 39 37 - 92 - Calm - 30.33 30.32 10 CLR None
2017-10-18 01:53 40 37 - 89 - Calm - 30.33 30.32 10 CLR 6-hr Min Temp (2am): 39.0°F
6-hr Max Temp (2am): 52.0°F
2017-10-18 00:53 41 38 - 88 - Calm - 30.33 30.32 10 CLR 24-hr Min Temp (1am): 34.0°F
24-hr Max Temp (1am): 63.0°F
2017-10-17 23:53 42 38 - 85 - Calm - 30.32 30.32 10 CLR None
2017-10-17 22:53 44 39 - 82 - Calm - 30.32 30.32 10 CLR None
2017-10-17 21:53 46 39 - 76 - Calm - 30.31 30.31 10 CLR None
2017-10-17 20:53 49 38 - 65 - Calm - 30.30 30.29 10 CLR None
2017-10-17 19:53 52 38 - 58 - Calm - 30.29 30.29 10 CLR 6-hr Min Temp (8pm): 52.0°F
6-hr Max Temp (8pm): 63.0°F
2017-10-17 18:53 57 36 - 45 190° 3 - 30.28 30.28 10 CLR None

Support USWX by starting your Amazon purchase here.